createdAt,value
2023-02-11T00:00:46.278Z,-1.97
2023-02-11T00:01:47.869Z,-1.99
2023-02-11T00:02:49.579Z,-1.99
2023-02-11T00:03:51.305Z,-1.99
2023-02-11T00:04:52.542Z,-1.96
2023-02-11T00:05:57.873Z,-1.95
2023-02-11T00:07:02.759Z,-1.93
2023-02-11T00:08:04.051Z,-1.94
2023-02-11T00:09:05.776Z,-1.96
2023-02-11T00:10:07.501Z,-1.99
2023-02-11T00:11:12.098Z,-2.01
2023-02-11T00:12:13.352Z,-2.03
2023-02-11T00:13:14.815Z,-2.03
2023-02-11T00:14:16.038Z,-2.04
2023-02-11T00:15:17.505Z,-2.02
2023-02-11T00:16:19.867Z,-1.99
2023-02-11T00:17:21.412Z,-1.96
2023-02-11T00:18:22.888Z,-1.96
2023-02-11T00:19:24.351Z,-1.91
2023-02-11T00:20:29.340Z,-1.86
2023-02-11T00:21:30.948Z,-1.83
2023-02-11T00:22:32.338Z,-1.83
2023-02-11T00:23:33.660Z,-1.85
2023-02-11T00:24:36.278Z,-1.87
2023-02-11T00:25:42.063Z,-1.85
2023-02-11T00:26:43.561Z,-1.89
2023-02-11T00:27:45.070Z,-1.86
2023-02-11T00:28:48.493Z,-1.82
2023-02-11T00:29:49.681Z,-1.80
2023-02-11T00:30:55.274Z,-1.78
2023-02-11T00:31:56.714Z,-1.78
2023-02-11T00:33:01.132Z,-1.78
2023-02-11T00:34:02.681Z,-1.80
2023-02-11T00:35:03.996Z,-1.80
2023-02-11T00:36:08.109Z,-1.82
2023-02-11T00:37:10.067Z,-1.81
2023-02-11T00:38:11.258Z,-1.79
2023-02-11T00:39:12.606Z,-1.73
2023-02-11T00:40:13.906Z,-1.72
2023-02-11T00:41:15.831Z,-1.70
2023-02-11T00:42:17.263Z,-1.67
2023-02-11T00:43:22.127Z,-1.65
2023-02-11T00:44:25.139Z,-1.63
2023-02-11T00:45:26.419Z,-1.59
2023-02-11T00:46:28.222Z,-1.55
2023-02-11T00:47:29.519Z,-1.54
2023-02-11T00:48:30.911Z,-1.57
2023-02-11T00:49:33.662Z,-1.61
2023-02-11T00:50:35.349Z,-1.61
2023-02-11T00:51:37.597Z,-1.64
2023-02-11T00:52:40.475Z,-1.65
2023-02-11T00:53:43.296Z,-1.66
2023-02-11T00:54:47.284Z,-1.69
2023-02-11T00:55:49.357Z,-1.73
2023-02-11T00:56:50.918Z,-1.73
2023-02-11T00:57:53.550Z,-1.70
2023-02-11T00:58:56.491Z,-1.70
2023-02-11T01:00:00.363Z,-1.69
2023-02-11T01:01:01.995Z,-1.72
2023-02-11T01:02:03.897Z,-1.76
2023-02-11T01:03:06.617Z,-1.75
2023-02-11T01:04:08.047Z,-1.78
2023-02-11T01:05:09.460Z,-1.80
2023-02-11T01:06:11.233Z,-1.82
2023-02-11T01:07:12.698Z,-1.81
2023-02-11T01:08:14.229Z,-1.82
2023-02-11T01:09:15.523Z,-1.78
2023-02-11T01:10:17.133Z,-1.75
2023-02-11T01:11:20.128Z,-1.78
2023-02-11T01:12:21.403Z,-1.70
2023-02-11T01:13:23.081Z,-1.64
2023-02-11T01:14:24.583Z,-1.65
2023-02-11T01:15:25.997Z,-1.69
2023-02-11T01:16:29.391Z,-1.70
2023-02-11T01:17:30.857Z,-1.72
2023-02-11T01:18:32.317Z,-1.75
2023-02-11T01:19:33.623Z,-1.76
2023-02-11T01:20:35.407Z,-1.76
2023-02-11T01:21:36.654Z,-1.74
2023-02-11T01:22:38.135Z,-1.74
2023-02-11T01:23:39.438Z,-1.74
2023-02-11T01:24:42.738Z,-1.76
2023-02-11T01:25:47.725Z,-1.71
2023-02-11T01:26:50.279Z,-1.72
2023-02-11T01:27:53.832Z,-1.75
2023-02-11T01:28:57.145Z,-1.84
2023-02-11T01:30:01.013Z,-1.79
2023-02-11T01:31:03.019Z,-1.79
2023-02-11T01:32:04.503Z,-1.80
2023-02-11T01:33:05.847Z,-1.75
2023-02-11T01:34:07.115Z,-1.74
2023-02-11T01:35:08.489Z,-1.76
2023-02-11T01:36:10.930Z,-1.76
2023-02-11T01:37:14.381Z,-1.76
2023-02-11T01:38:18.162Z,-1.78
2023-02-11T01:39:20.626Z,-1.79
2023-02-11T01:40:22.925Z,-1.79
2023-02-11T01:41:24.178Z,-1.77
2023-02-11T01:42:25.413Z,-1.79
2023-02-11T01:43:28.245Z,-1.75
2023-02-11T01:44:31.719Z,-1.71
2023-02-11T01:45:45.203Z,-1.72
2023-02-11T01:46:51.774Z,-1.75
2023-02-11T01:47:54.157Z,-1.77
2023-02-11T01:48:58.103Z,-1.75
2023-02-11T01:50:01.474Z,-1.75
2023-02-11T01:51:23.051Z,-1.75
2023-02-11T01:52:39.321Z,-1.76
2023-02-11T01:53:43.385Z,-1.79
2023-02-11T01:54:47.290Z,-1.74
2023-02-11T01:55:49.371Z,-1.75
2023-02-11T01:56:54.486Z,-1.75
2023-02-11T01:57:57.870Z,-1.74
2023-02-11T01:59:02.740Z,-1.74
2023-02-11T02:00:15.593Z,-1.74
2023-02-11T02:01:23.150Z,-1.76
2023-02-11T02:02:32.759Z,-1.76
2023-02-11T02:03:37.056Z,-1.78
2023-02-11T02:04:42.118Z,-1.78
2023-02-11T02:05:52.085Z,-1.78
2023-02-11T02:07:00.014Z,-1.79
2023-02-11T02:08:11.529Z,-1.81
2023-02-11T02:09:25.378Z,-1.81
2023-02-11T02:10:28.362Z,-1.81
2023-02-11T02:11:29.601Z,-1.81
2023-02-11T02:12:31.112Z,-1.80
2023-02-11T02:13:33.207Z,-1.81
2023-02-11T02:14:37.937Z,-1.81
2023-02-11T02:15:42.575Z,-1.82
2023-02-11T02:16:44.533Z,-1.82
2023-02-11T02:17:58.063Z,-1.79
2023-02-11T02:19:11.484Z,-1.78
2023-02-11T02:20:31.696Z,-1.78
2023-02-11T02:21:53.351Z,-1.79
2023-02-11T02:23:06.631Z,-1.76
2023-02-11T02:24:26.910Z,-1.79
2023-02-11T02:25:36.200Z,-1.69
2023-02-11T02:26:54.078Z,-1.68
2023-02-11T02:28:04.676Z,-1.67
2023-02-11T02:29:25.244Z,-1.68
2023-02-11T02:30:51.496Z,-1.69
2023-02-11T02:32:12.279Z,-1.70
2023-02-11T02:33:28.929Z,-1.67
2023-02-11T02:34:36.271Z,-1.69
2023-02-11T02:35:48.462Z,-1.67
2023-02-11T02:37:04.304Z,-1.68
2023-02-11T02:38:13.707Z,-1.69
2023-02-11T02:39:20.206Z,-1.73
2023-02-11T02:40:25.339Z,-1.76
2023-02-11T02:41:31.243Z,-1.79
2023-02-11T02:42:33.255Z,-1.81
2023-02-11T02:43:36.525Z,-1.72
2023-02-11T02:44:37.818Z,-1.71
2023-02-11T02:45:39.063Z,-1.68
2023-02-11T02:46:40.515Z,-1.71
2023-02-11T02:47:41.840Z,-1.64
2023-02-11T02:48:43.247Z,-1.62
2023-02-11T02:49:44.603Z,-1.62
2023-02-11T02:50:47.227Z,-1.58
2023-02-11T02:51:48.647Z,-1.62
2023-02-11T02:53:00.681Z,-1.63
2023-02-11T02:54:08.061Z,-1.65
2023-02-11T02:55:22.080Z,-1.67
2023-02-11T02:56:33.475Z,-1.66
2023-02-11T02:57:54.076Z,-1.64
2023-02-11T02:59:14.296Z,-1.63
2023-02-11T03:00:34.152Z,-1.63
2023-02-11T03:01:44.696Z,-1.60
2023-02-11T03:03:04.940Z,-1.60
2023-02-11T03:04:16.194Z,-1.58
2023-02-11T03:05:36.216Z,-1.52
2023-02-11T03:06:48.186Z,-1.54
2023-02-11T03:07:55.393Z,-1.52
2023-02-11T03:09:10.397Z,-1.53
2023-02-11T03:10:19.331Z,-1.54
2023-02-11T03:11:21.988Z,-1.57
2023-02-11T03:12:23.599Z,-1.53
2023-02-11T03:13:28.084Z,-1.47
2023-02-11T03:14:30.557Z,-1.46
2023-02-11T03:15:34.732Z,-1.48
2023-02-11T03:16:36.712Z,-1.46
2023-02-11T03:17:40.324Z,-1.44
2023-02-11T03:18:46.636Z,-1.41
2023-02-11T03:19:50.286Z,-1.44
2023-02-11T03:20:55.232Z,-1.47
2023-02-11T03:21:57.292Z,-1.47
2023-02-11T03:23:06.171Z,-1.51
2023-02-11T03:24:12.102Z,-1.52
2023-02-11T03:25:13.717Z,-1.51
2023-02-11T03:26:32.402Z,-1.52
2023-02-11T03:27:39.553Z,-1.52
2023-02-11T03:28:44.111Z,-1.50
2023-02-11T03:29:59.925Z,-1.50
2023-02-11T03:31:09.489Z,-1.45
2023-02-11T03:32:17.074Z,-1.47
2023-02-11T03:33:30.661Z,-1.48
2023-02-11T03:34:47.687Z,-1.45
2023-02-11T03:35:53.995Z,-1.45
2023-02-11T03:37:11.744Z,-1.47
2023-02-11T03:38:24.670Z,-1.48
2023-02-11T03:39:29.674Z,-1.50
2023-02-11T03:40:38.599Z,-1.50
2023-02-11T03:41:40.934Z,-1.47
2023-02-11T03:42:52.047Z,-1.45
2023-02-11T03:43:55.660Z,-1.41
2023-02-11T03:45:00.248Z,-1.40
2023-02-11T03:46:02.996Z,-1.36
2023-02-11T03:47:07.764Z,-1.32
2023-02-11T03:48:14.579Z,-1.29
2023-02-11T03:50:35.967Z,-1.22
2023-02-11T03:51:37.960Z,-1.21
2023-02-11T03:52:39.355Z,-1.17
2023-02-11T03:53:43.098Z,-1.13
2023-02-11T03:54:46.679Z,-1.14
2023-02-11T03:55:49.592Z,-1.11
2023-02-11T03:56:53.896Z,-1.10
2023-02-11T03:57:55.731Z,-1.10
2023-02-11T03:58:57.726Z,-1.10
2023-02-11T03:59:59.179Z,-1.05
2023-02-11T04:01:00.496Z,-1.03
2023-02-11T04:02:01.832Z,-1.01
2023-02-11T04:03:04.213Z,-1.01
2023-02-11T04:04:05.815Z,-1.02
2023-02-11T04:05:07.940Z,-1.02
2023-02-11T04:06:09.197Z,-1.00
2023-02-11T04:07:12.204Z,-0.99
2023-02-11T04:08:14.100Z,-1.00
2023-02-11T04:09:15.423Z,-1.02
2023-02-11T04:10:16.973Z,-1.02
2023-02-11T04:11:18.222Z,-1.05
2023-02-11T04:12:19.944Z,-1.08
2023-02-11T04:13:22.240Z,-1.11
2023-02-11T04:14:23.517Z,-1.13
2023-02-11T04:15:25.190Z,-1.15
2023-02-11T04:16:26.521Z,-1.16
2023-02-11T04:17:27.768Z,-1.17
2023-02-11T04:18:29.190Z,-1.17
2023-02-11T04:19:30.363Z,-1.19
2023-02-11T04:20:32.848Z,-1.17
2023-02-11T04:21:34.888Z,-1.15
2023-02-11T04:22:36.663Z,-1.13
2023-02-11T04:23:38.042Z,-1.13
2023-02-11T04:24:39.714Z,-1.10
2023-02-11T04:25:41.026Z,-1.10
2023-02-11T04:26:43.991Z,-1.07
2023-02-11T04:27:45.463Z,-1.04
2023-02-11T04:28:46.891Z,-0.99
2023-02-11T04:29:50.297Z,-0.97
2023-02-11T04:30:54.933Z,-0.97
2023-02-11T04:31:56.572Z,-0.95
2023-02-11T04:32:58.230Z,-0.93
2023-02-11T04:33:59.508Z,-0.92
2023-02-11T04:35:01.810Z,-0.90
2023-02-11T04:36:03.444Z,-0.89
2023-02-11T04:37:05.145Z,-0.87
2023-02-11T04:38:06.499Z,-0.87
2023-02-11T04:39:07.732Z,-0.85
2023-02-11T04:40:09.438Z,-0.81
2023-02-11T04:41:10.692Z,-0.78
2023-02-11T04:42:14.529Z,-0.71
2023-02-11T04:43:19.922Z,-0.70
2023-02-11T04:44:21.634Z,-0.67
2023-02-11T04:45:23.503Z,-0.64
2023-02-11T04:46:24.983Z,-0.62
2023-02-11T04:47:26.526Z,-0.61
2023-02-11T04:48:34.992Z,-0.60
2023-02-11T04:49:36.439Z,-0.61
2023-02-11T04:50:37.720Z,-0.61
2023-02-11T04:51:38.938Z,-0.61
2023-02-11T04:52:40.239Z,-0.60
2023-02-11T04:53:41.508Z,-0.59
2023-02-11T04:54:42.819Z,-0.59
2023-02-11T04:55:48.681Z,-0.60
2023-02-11T04:56:50.121Z,-0.58
2023-02-11T04:57:51.664Z,-0.49
2023-02-11T04:58:53.979Z,-0.50
2023-02-11T04:59:55.520Z,-0.46
2023-02-11T05:01:05.094Z,-0.47
2023-02-11T05:02:07.554Z,-0.47
2023-02-11T05:03:08.897Z,-0.45
2023-02-11T05:04:10.299Z,-0.50
2023-02-11T05:05:11.835Z,-0.50
2023-02-11T05:06:14.674Z,-0.51
2023-02-11T05:07:16.015Z,-0.52
2023-02-11T05:08:18.282Z,-0.49
2023-02-11T05:09:19.542Z,-0.47
2023-02-11T05:10:20.892Z,-0.50
2023-02-11T05:11:24.045Z,-0.53
2023-02-11T05:12:25.519Z,-0.52
2023-02-11T05:13:28.522Z,-0.49
2023-02-11T05:14:32.507Z,-0.45
2023-02-11T05:15:35.887Z,-0.44
2023-02-11T05:16:38.060Z,-0.42
2023-02-11T05:17:39.569Z,-0.42
2023-02-11T05:18:41.829Z,-0.41
2023-02-11T05:19:43.290Z,-0.37
2023-02-11T05:20:44.586Z,-0.35
2023-02-11T05:22:01.400Z,-0.38
2023-02-11T05:23:03.671Z,-0.36
2023-02-11T05:24:05.183Z,-0.36
2023-02-11T05:25:06.578Z,-0.35
2023-02-11T05:26:07.850Z,-0.33
2023-02-11T05:27:09.297Z,-0.26
2023-02-11T05:28:10.549Z,-0.26
2023-02-11T05:29:13.183Z,-0.26
2023-02-11T05:30:14.624Z,-0.22
2023-02-11T05:31:15.883Z,-0.22
2023-02-11T05:32:17.103Z,-0.24
2023-02-11T05:33:21.311Z,-0.24
2023-02-11T05:34:22.894Z,-0.24
2023-02-11T05:35:24.411Z,-0.28
2023-02-11T05:36:26.629Z,-0.28
2023-02-11T05:37:27.923Z,-0.29
2023-02-11T05:38:29.290Z,-0.28
2023-02-11T05:39:30.564Z,-0.30
2023-02-11T05:40:32.151Z,-0.32
2023-02-11T05:41:35.407Z,-0.29
2023-02-11T05:42:36.665Z,-0.25
2023-02-11T05:43:38.385Z,-0.23
2023-02-11T05:44:39.774Z,-0.23
2023-02-11T05:45:42.594Z,-0.21
2023-02-11T05:46:43.889Z,-0.20
2023-02-11T05:47:45.151Z,-0.22
2023-02-11T05:48:46.963Z,-0.26
2023-02-11T05:49:48.260Z,-0.23
2023-02-11T05:50:49.595Z,-0.22
2023-02-11T05:51:51.164Z,-0.15
2023-02-11T05:52:52.740Z,-0.19
2023-02-11T05:53:55.429Z,-0.20
2023-02-11T05:54:56.640Z,-0.21
2023-02-11T05:55:59.152Z,-0.24
2023-02-11T05:57:00.675Z,-0.23
2023-02-11T05:58:02.188Z,-0.22
2023-02-11T05:59:03.885Z,-0.20
2023-02-11T06:00:05.657Z,-0.20
2023-02-11T06:01:13.851Z,-0.21
2023-02-11T06:02:15.202Z,-0.18
2023-02-11T06:03:16.583Z,-0.13
2023-02-11T06:04:18.118Z,-0.12
2023-02-11T06:05:19.586Z,-0.10
2023-02-11T06:06:21.268Z,-0.11
2023-02-11T06:07:22.538Z,-0.13
2023-02-11T06:08:25.496Z,-0.13
2023-02-11T06:09:26.920Z,-0.15
2023-02-11T06:10:28.198Z,-0.16
2023-02-11T06:11:30.657Z,-0.16
2023-02-11T06:12:31.883Z,-0.18
2023-02-11T06:13:33.116Z,-0.18
2023-02-11T06:14:34.511Z,-0.18
2023-02-11T06:15:35.827Z,-0.18
2023-02-11T06:16:37.359Z,-0.17
2023-02-11T06:17:38.850Z,-0.15
2023-02-11T06:18:40.474Z,-0.14
2023-02-11T06:19:41.695Z,-0.15
2023-02-11T06:20:43.052Z,-0.14
2023-02-11T06:21:44.763Z,-0.15
2023-02-11T06:22:46.404Z,-0.03
2023-02-11T06:23:47.748Z,-0.06
2023-02-11T06:25:00.892Z,-0.06
2023-02-11T06:26:04.111Z,-0.08
2023-02-11T06:27:05.611Z,-0.04
2023-02-11T06:28:06.961Z,-0.04
2023-02-11T06:29:09.466Z,-0.08
2023-02-11T06:30:11.005Z,-0.08
2023-02-11T06:31:12.652Z,-0.06
2023-02-11T06:32:36.974Z,-0.03
2023-02-11T06:33:36.292Z,-0.04
2023-02-11T06:34:38.424Z,-0.05
2023-02-11T06:35:39.755Z,-0.01
2023-02-11T06:36:41.068Z,-0.03
2023-02-11T06:37:43.888Z,-0.03
2023-02-11T06:38:45.783Z,-0.02
2023-02-11T06:39:48.620Z,0.00
2023-02-11T06:40:50.136Z,0.02
2023-02-11T06:41:51.470Z,0.01
2023-02-11T06:42:53.042Z,0.05
2023-02-11T06:43:54.306Z,0.03
2023-02-11T06:44:55.703Z,-0.00
2023-02-11T06:45:57.307Z,-0.00
2023-02-11T06:46:58.704Z,0.01
2023-02-11T06:47:59.955Z,0.01
2023-02-11T06:49:01.284Z,0.00
2023-02-11T06:50:03.408Z,0.00
2023-02-11T06:51:05.895Z,0.02
2023-02-11T06:52:07.723Z,0.01
2023-02-11T06:53:09.241Z,0.01
2023-02-11T06:54:11.272Z,0.03
2023-02-11T06:55:12.703Z,0.06
2023-02-11T06:56:17.598Z,0.14
2023-02-11T06:57:20.131Z,0.14
2023-02-11T06:58:21.475Z,0.13
2023-02-11T06:59:23.079Z,0.09
2023-02-11T07:00:24.374Z,0.11
2023-02-11T07:01:26.491Z,0.14
2023-02-11T07:02:28.143Z,0.12
2023-02-11T07:03:29.459Z,0.14
2023-02-11T07:04:30.922Z,0.14
2023-02-11T07:05:32.342Z,0.17
2023-02-11T07:06:33.690Z,0.15
2023-02-11T07:07:35.031Z,0.16
2023-02-11T07:08:37.508Z,0.17
2023-02-11T07:09:41.172Z,0.21
2023-02-11T07:10:42.679Z,0.21
2023-02-11T07:11:46.440Z,0.20
2023-02-11T07:12:48.703Z,0.22
2023-02-11T07:13:53.236Z,0.25
2023-02-11T07:14:55.790Z,0.20
2023-02-11T07:15:57.037Z,0.21
2023-02-11T07:16:58.394Z,0.20
2023-02-11T07:17:59.631Z,0.28
2023-02-11T07:19:00.947Z,0.27
2023-02-11T07:20:05.127Z,0.23
2023-02-11T07:21:06.980Z,0.25
2023-02-11T07:22:08.289Z,0.27
2023-02-11T07:23:09.530Z,0.25
2023-02-11T07:24:13.220Z,0.25
2023-02-11T07:25:14.561Z,0.29
2023-02-11T07:26:16.856Z,0.29
2023-02-11T07:27:18.094Z,0.32
2023-02-11T07:28:21.807Z,0.33
2023-02-11T07:29:23.102Z,0.34
2023-02-11T07:30:24.803Z,0.32
2023-02-11T07:31:27.750Z,0.33
2023-02-11T07:32:29.672Z,0.36
2023-02-11T07:33:31.007Z,0.35
2023-02-11T07:34:32.552Z,0.36
2023-02-11T07:35:36.820Z,0.38
2023-02-11T07:36:38.430Z,0.38
2023-02-11T07:37:41.033Z,0.42
2023-02-11T07:38:44.084Z,0.43
2023-02-11T07:39:45.318Z,0.48
2023-02-11T07:40:48.023Z,0.50
2023-02-11T07:41:49.381Z,0.51
2023-02-11T07:42:51.473Z,0.54
2023-02-11T07:43:53.049Z,0.53
2023-02-11T07:44:54.594Z,0.55
2023-02-11T07:45:57.834Z,0.54
2023-02-11T07:46:59.667Z,0.56
2023-02-11T07:48:01.052Z,0.60
2023-02-11T07:49:02.280Z,0.63
2023-02-11T07:50:03.709Z,0.65
2023-02-11T07:51:05.947Z,0.66
2023-02-11T07:52:07.289Z,0.67
2023-02-11T07:53:08.894Z,0.69
2023-02-11T07:54:10.215Z,0.71
2023-02-11T07:55:11.798Z,0.75
2023-02-11T07:56:14.320Z,0.84
2023-02-11T07:57:15.616Z,0.91
2023-02-11T07:58:16.900Z,0.95
2023-02-11T07:59:18.108Z,0.99
2023-02-11T08:00:21.133Z,1.05
2023-02-11T08:01:23.893Z,1.09
2023-02-11T08:02:25.378Z,1.11
2023-02-11T08:03:26.934Z,1.17
2023-02-11T08:04:28.400Z,1.20
2023-02-11T08:05:29.727Z,1.26
2023-02-11T08:06:32.242Z,1.30
2023-02-11T08:07:33.534Z,1.32
2023-02-11T08:08:34.905Z,1.36
2023-02-11T08:09:36.176Z,1.36
2023-02-11T08:10:37.541Z,1.39
2023-02-11T08:11:38.840Z,1.43
2023-02-11T08:12:40.120Z,1.40
2023-02-11T08:13:41.631Z,1.39
2023-02-11T08:14:43.196Z,1.42
2023-02-11T08:15:44.593Z,1.41
2023-02-11T08:16:46.165Z,1.37
2023-02-11T08:17:47.443Z,1.37
2023-02-11T08:18:49.405Z,1.37
2023-02-11T08:19:50.871Z,1.37
2023-02-11T08:20:53.333Z,1.37
2023-02-11T08:21:58.031Z,1.36
2023-02-11T08:22:59.391Z,1.40
2023-02-11T08:24:01.674Z,1.40
2023-02-11T08:25:06.215Z,1.37
2023-02-11T08:26:13.062Z,1.42
2023-02-11T08:27:14.292Z,1.45
2023-02-11T08:28:15.570Z,1.48
2023-02-11T08:29:18.429Z,1.49
2023-02-11T08:30:20.127Z,1.48
2023-02-11T08:31:22.894Z,1.50
2023-02-11T08:32:24.209Z,1.53
2023-02-11T08:33:27.129Z,1.52
2023-02-11T08:34:28.534Z,1.55
2023-02-11T08:35:32.407Z,1.54
2023-02-11T08:36:36.842Z,1.64
2023-02-11T08:37:40.551Z,1.66
2023-02-11T08:38:42.292Z,1.72
2023-02-11T08:39:44.116Z,1.82
2023-02-11T08:40:45.360Z,1.86
2023-02-11T08:41:51.128Z,1.91
2023-02-11T08:42:52.381Z,1.94
2023-02-11T08:43:54.035Z,2.00
2023-02-11T08:44:55.474Z,2.04
2023-02-11T08:46:01.891Z,2.08
2023-02-11T08:47:03.523Z,2.15
2023-02-11T08:48:04.735Z,2.20
2023-02-11T08:49:07.473Z,2.27
2023-02-11T08:50:08.845Z,2.33
2023-02-11T08:51:13.295Z,2.38
2023-02-11T08:52:14.538Z,2.37
2023-02-11T08:53:15.903Z,2.39
2023-02-11T08:54:17.747Z,2.41
2023-02-11T08:55:19.030Z,2.45
2023-02-11T08:56:20.999Z,2.46
2023-02-11T08:57:22.371Z,2.46
2023-02-11T08:58:24.092Z,2.47
2023-02-11T08:59:25.355Z,2.48
2023-02-11T09:00:26.952Z,2.49
2023-02-11T09:01:31.825Z,2.54
2023-02-11T09:02:58.900Z,2.57
2023-02-11T09:04:00.619Z,2.60
2023-02-11T09:05:02.179Z,2.62
2023-02-11T09:06:05.137Z,2.66
2023-02-11T09:07:08.026Z,2.69
2023-02-11T09:08:09.616Z,2.71
2023-02-11T09:09:13.274Z,2.75
2023-02-11T09:10:14.794Z,2.84
2023-02-11T09:11:17.126Z,2.88
2023-02-11T09:12:18.647Z,2.92
2023-02-11T09:13:19.946Z,2.93
2023-02-11T09:14:23.702Z,2.95
2023-02-11T09:15:25.191Z,2.97
2023-02-11T09:16:29.438Z,2.98
2023-02-11T09:17:30.806Z,3.01
2023-02-11T09:18:35.243Z,3.01
2023-02-11T09:19:36.480Z,3.04
2023-02-11T09:23:10.007Z,3.12
2023-02-11T09:24:11.636Z,3.14
2023-02-11T09:25:12.931Z,3.18
2023-02-11T09:26:15.881Z,3.21
2023-02-11T09:27:17.303Z,3.21
2023-02-11T09:28:18.652Z,3.22
2023-02-11T09:29:19.966Z,3.24
2023-02-11T09:30:21.596Z,3.25
2023-02-11T09:31:24.473Z,3.26
2023-02-11T09:32:25.886Z,3.27
2023-02-11T09:33:28.287Z,3.28
2023-02-11T09:34:29.595Z,3.35
2023-02-11T09:35:30.867Z,3.38
2023-02-11T09:36:33.820Z,3.38
2023-02-11T09:37:37.314Z,3.42
2023-02-11T09:38:38.935Z,3.49
2023-02-11T09:39:40.332Z,3.52
2023-02-11T09:40:42.499Z,3.55
2023-02-11T09:42:02.561Z,3.57
2023-02-11T09:43:06.810Z,3.62
2023-02-11T09:44:11.411Z,3.64
2023-02-11T09:45:15.850Z,3.63
2023-02-11T09:46:17.747Z,3.66
2023-02-11T09:47:28.093Z,3.71
2023-02-11T09:48:36.031Z,3.71
2023-02-11T09:49:42.837Z,3.72
2023-02-11T09:50:50.311Z,3.72
2023-02-11T09:51:58.685Z,3.73
2023-02-11T09:53:05.170Z,3.76
2023-02-11T09:54:21.176Z,3.74
2023-02-11T09:55:25.140Z,3.70
2023-02-11T09:56:28.071Z,3.68
2023-02-11T09:57:36.420Z,3.66
2023-02-11T09:58:39.956Z,3.65
2023-02-11T09:59:41.292Z,3.65
2023-02-11T10:00:42.508Z,3.66
2023-02-11T10:01:48.097Z,3.66
2023-02-11T10:03:04.964Z,3.66
2023-02-11T10:04:26.530Z,3.67
2023-02-11T10:05:56.215Z,3.70
2023-02-11T10:07:00.360Z,3.75
2023-02-11T10:08:08.706Z,3.76
2023-02-11T10:09:18.889Z,3.80
2023-02-11T10:10:32.239Z,3.81
2023-02-11T10:11:40.960Z,3.82
2023-02-11T10:12:53.904Z,3.83
2023-02-11T10:14:13.651Z,3.86
2023-02-11T10:15:27.296Z,3.90
2023-02-11T10:16:35.501Z,3.95
2023-02-11T10:17:45.838Z,3.97
2023-02-11T10:18:57.830Z,4.01
2023-02-11T10:20:04.830Z,4.03
2023-02-11T10:21:06.073Z,4.06
2023-02-11T10:22:25.572Z,4.13
2023-02-11T10:23:30.004Z,4.24
2023-02-11T10:24:31.544Z,4.27
2023-02-11T10:25:43.167Z,4.30
2023-02-11T10:26:48.771Z,4.28
2023-02-11T10:27:51.216Z,4.40
2023-02-11T10:28:54.360Z,4.41
2023-02-11T10:30:08.160Z,4.43
2023-02-11T10:31:11.101Z,4.45
2023-02-11T10:32:25.574Z,4.52
2023-02-11T10:33:30.291Z,4.57
2023-02-11T10:34:31.512Z,4.63
2023-02-11T10:35:33.076Z,4.67
2023-02-11T10:36:37.986Z,4.78
2023-02-11T10:37:39.343Z,4.88
2023-02-11T10:38:40.838Z,4.82
2023-02-11T10:39:42.122Z,4.76
2023-02-11T10:40:43.719Z,4.77
2023-02-11T10:41:47.131Z,4.81
2023-02-11T10:42:55.555Z,4.84
2023-02-11T10:43:59.069Z,4.87
2023-02-11T10:45:02.380Z,4.87
2023-02-11T10:46:04.893Z,4.93
2023-02-11T10:47:27.065Z,5.01
2023-02-11T10:48:45.682Z,5.02
2023-02-11T10:49:47.571Z,5.05
2023-02-11T10:50:49.023Z,5.10
2023-02-11T10:51:51.823Z,5.13
2023-02-11T10:52:53.290Z,5.24
2023-02-11T10:54:03.627Z,5.31
2023-02-11T10:55:04.902Z,5.35
2023-02-11T10:56:07.075Z,5.35
2023-02-11T10:57:18.224Z,5.38
2023-02-11T10:58:28.135Z,5.44
2023-02-11T10:59:31.234Z,5.46
2023-02-11T11:00:37.013Z,5.52
2023-02-11T11:01:50.698Z,5.49
2023-02-11T11:02:54.373Z,5.52
2023-02-11T11:03:55.901Z,5.55
2023-02-11T11:04:58.537Z,5.60
2023-02-11T11:06:05.156Z,5.61
2023-02-11T11:07:11.729Z,5.65
2023-02-11T11:08:13.142Z,5.68
2023-02-11T11:09:26.913Z,5.72
2023-02-11T11:10:38.863Z,5.72
2023-02-11T11:11:51.116Z,5.89
2023-02-11T11:12:52.555Z,5.90
2023-02-11T11:13:53.871Z,5.94
2023-02-11T11:15:00.506Z,6.08
2023-02-11T11:16:13.580Z,6.14
2023-02-11T11:17:18.742Z,6.16
2023-02-11T11:18:23.620Z,6.18
2023-02-11T11:19:25.760Z,6.22
2023-02-11T11:20:29.685Z,6.28
2023-02-11T11:21:41.391Z,6.29
2023-02-11T11:22:43.237Z,6.30
2023-02-11T11:23:56.200Z,6.32
2023-02-11T11:24:57.462Z,6.33
2023-02-11T11:26:01.556Z,6.41
2023-02-11T11:27:04.227Z,6.43
2023-02-11T11:28:05.671Z,6.44
2023-02-11T11:29:09.772Z,6.43
2023-02-11T11:30:15.708Z,6.45
2023-02-11T11:31:18.950Z,6.43
2023-02-11T11:32:25.105Z,6.47
2023-02-11T11:33:28.589Z,6.58
2023-02-11T11:34:42.927Z,6.69
2023-02-11T11:35:54.049Z,6.73
2023-02-11T11:36:56.141Z,6.79
2023-02-11T11:38:01.866Z,6.86
2023-02-11T11:39:23.936Z,6.97
2023-02-11T11:40:29.675Z,7.02
2023-02-11T11:41:32.611Z,7.05
2023-02-11T11:42:35.371Z,7.11
2023-02-11T11:43:36.700Z,7.24
2023-02-11T11:44:39.814Z,7.35
2023-02-11T11:45:57.874Z,7.49
2023-02-11T11:47:11.643Z,7.56
2023-02-11T11:48:18.712Z,7.60
2023-02-11T11:49:24.065Z,7.66
2023-02-11T11:50:30.814Z,7.69
2023-02-11T11:51:32.431Z,7.72
2023-02-11T11:52:33.722Z,7.72
2023-02-11T11:53:41.620Z,7.72
2023-02-11T11:54:46.166Z,7.71
2023-02-11T11:55:51.418Z,7.74
2023-02-11T11:57:31.191Z,7.69
2023-02-11T11:58:32.839Z,7.68
2023-02-11T11:59:34.114Z,7.73
2023-02-11T12:00:40.162Z,7.72
2023-02-11T12:01:59.872Z,7.72
2023-02-11T12:03:20.379Z,7.73
2023-02-11T12:04:27.459Z,7.78
2023-02-11T12:05:37.537Z,7.82
2023-02-11T12:06:53.751Z,7.82
2023-02-11T12:08:01.163Z,7.86
2023-02-11T12:09:02.476Z,7.86
2023-02-11T12:10:22.531Z,7.89
2023-02-11T12:11:37.072Z,7.94
2023-02-11T12:12:38.324Z,7.93
2023-02-11T12:13:55.478Z,7.94
2023-02-11T12:14:56.806Z,7.96
2023-02-11T12:16:10.585Z,7.97
2023-02-11T12:17:24.527Z,8.00
2023-02-11T12:18:36.152Z,8.01
2023-02-11T12:19:54.644Z,7.99
2023-02-11T12:21:14.531Z,8.01
2023-02-11T12:22:30.076Z,8.00
2023-02-11T12:23:31.509Z,8.05
2023-02-11T12:24:55.503Z,8.08
2023-02-11T12:26:15.878Z,8.10
2023-02-11T12:27:34.234Z,8.14
2023-02-11T12:28:44.686Z,8.13
2023-02-11T12:29:49.133Z,8.22
2023-02-11T12:31:02.290Z,8.27
2023-02-11T12:32:14.899Z,8.25
2023-02-11T12:33:25.874Z,8.22
2023-02-11T12:34:35.773Z,8.20
2023-02-11T12:35:42.135Z,8.21
2023-02-11T12:37:00.227Z,8.14
2023-02-11T12:38:09.875Z,8.12
2023-02-11T12:39:17.481Z,8.05
2023-02-11T12:40:39.096Z,8.02
2023-02-11T12:41:53.937Z,8.05
2023-02-11T12:43:00.274Z,7.95
2023-02-11T12:44:04.253Z,7.88
2023-02-11T12:45:11.406Z,7.97
2023-02-11T12:46:27.911Z,7.98
2023-02-11T12:47:44.480Z,7.89
2023-02-11T12:48:52.862Z,7.82
2023-02-11T12:50:04.011Z,7.80
2023-02-11T12:51:28.803Z,7.78
2023-02-11T12:52:50.292Z,7.69
2023-02-11T12:54:10.121Z,7.64
2023-02-11T12:55:22.761Z,7.58
2023-02-11T12:56:27.927Z,7.58
2023-02-11T12:57:32.057Z,7.53
2023-02-11T12:58:44.924Z,7.60
2023-02-11T12:59:50.965Z,7.59
2023-02-11T13:00:57.892Z,7.65
2023-02-11T13:02:01.099Z,7.64
2023-02-11T13:03:10.935Z,7.61
2023-02-11T13:04:25.685Z,7.61
2023-02-11T13:05:50.584Z,7.58
2023-02-11T13:06:55.695Z,7.54
2023-02-11T13:08:02.828Z,7.49
2023-02-11T13:09:11.130Z,7.54
2023-02-11T13:10:23.527Z,7.53
2023-02-11T13:11:28.973Z,7.50
2023-02-11T13:12:32.332Z,7.50
2023-02-11T13:13:47.112Z,7.52
2023-02-11T13:14:50.029Z,7.56
2023-02-11T13:16:05.229Z,7.65
2023-02-11T13:17:13.751Z,7.63
2023-02-11T13:18:16.809Z,7.59
2023-02-11T13:19:32.955Z,7.63
2023-02-11T13:20:38.460Z,7.70
2023-02-11T13:21:45.908Z,7.63
2023-02-11T13:22:54.654Z,7.61
2023-02-11T13:24:01.500Z,7.58
2023-02-11T13:25:05.772Z,7.58
2023-02-11T13:26:13.132Z,7.57
2023-02-11T13:27:29.457Z,7.60
2023-02-11T13:28:57.232Z,7.61
2023-02-11T13:30:17.239Z,7.64
2023-02-11T13:31:18.655Z,7.62
2023-02-11T13:32:20.160Z,7.59
2023-02-11T13:33:30.705Z,7.58
2023-02-11T13:34:41.254Z,7.63
2023-02-11T13:35:45.895Z,7.59
2023-02-11T13:36:53.862Z,7.57
2023-02-11T13:37:55.831Z,7.64
2023-02-11T13:38:58.865Z,7.63
2023-02-11T13:40:09.839Z,7.62
2023-02-11T13:41:11.388Z,7.66
2023-02-11T13:42:16.150Z,7.65
2023-02-11T13:43:23.112Z,7.67
2023-02-11T13:44:26.113Z,7.62
2023-02-11T13:45:36.017Z,7.60
2023-02-11T13:46:53.841Z,7.71
2023-02-11T13:47:59.332Z,7.65
2023-02-11T13:49:00.728Z,7.63
2023-02-11T13:50:04.157Z,7.63
2023-02-11T13:51:10.381Z,7.68
2023-02-11T13:52:19.684Z,7.72
2023-02-11T13:53:21.609Z,7.78
2023-02-11T13:54:28.301Z,7.82
2023-02-11T13:55:30.329Z,7.80
2023-02-11T13:56:36.990Z,7.83
2023-02-11T13:57:39.010Z,7.88
2023-02-11T13:58:49.991Z,7.92
2023-02-11T13:59:53.121Z,7.95
2023-02-11T14:00:55.119Z,7.96
2023-02-11T14:01:59.932Z,7.97
2023-02-11T14:03:10.249Z,8.05
2023-02-11T14:04:24.679Z,8.07
2023-02-11T14:05:31.066Z,8.08
2023-02-11T14:06:34.910Z,8.09
2023-02-11T14:07:36.586Z,8.09
2023-02-11T14:08:57.778Z,8.11
2023-02-11T14:09:59.256Z,8.16
2023-02-11T14:11:04.966Z,8.19
2023-02-11T14:12:23.862Z,8.21
2023-02-11T14:13:26.687Z,8.23
2023-02-11T14:14:30.501Z,8.21
2023-02-11T14:15:38.431Z,8.19
2023-02-11T14:16:58.136Z,8.11